sensor_id;sensor_type;location;lat;lon;timestamp;P1;durP1;ratioP1;P2;durP2;ratioP2
15228;SDS011;7717;47.792;12.076;2022-12-16T00:02:09;49.87;;;23.23;;
15228;SDS011;7717;47.792;12.076;2022-12-16T00:04:34;44.60;;;22.63;;
15228;SDS011;7717;47.792;12.076;2022-12-16T00:07:00;52.17;;;22.10;;
15228;SDS011;7717;47.792;12.076;2022-12-16T00:09:25;46.37;;;23.30;;
15228;SDS011;7717;47.792;12.076;2022-12-16T00:11:50;46.53;;;21.97;;
15228;SDS011;7717;47.792;12.076;2022-12-16T00:14:16;47.40;;;23.37;;
15228;SDS011;7717;47.792;12.076;2022-12-16T00:16:41;43.73;;;22.57;;
15228;SDS011;7717;47.792;12.076;2022-12-16T00:19:06;41.63;;;21.93;;
15228;SDS011;7717;47.792;12.076;2022-12-16T00:21:32;39.13;;;21.53;;
15228;SDS011;7717;47.792;12.076;2022-12-16T00:23:57;38.20;;;21.20;;
15228;SDS011;7717;47.792;12.076;2022-12-16T00:26:22;42.70;;;21.87;;
15228;SDS011;7717;47.792;12.076;2022-12-16T00:28:48;44.17;;;21.90;;
15228;SDS011;7717;47.792;12.076;2022-12-16T00:31:13;40.53;;;21.20;;
15228;SDS011;7717;47.792;12.076;2022-12-16T00:33:39;42.33;;;20.63;;
15228;SDS011;7717;47.792;12.076;2022-12-16T00:36:04;43.90;;;20.70;;
15228;SDS011;7717;47.792;12.076;2022-12-16T00:38:29;41.60;;;21.13;;
15228;SDS011;7717;47.792;12.076;2022-12-16T00:40:55;39.37;;;20.97;;
15228;SDS011;7717;47.792;12.076;2022-12-16T00:43:21;38.53;;;19.93;;
15228;SDS011;7717;47.792;12.076;2022-12-16T00:45:46;42.33;;;18.80;;
15228;SDS011;7717;47.792;12.076;2022-12-16T00:48:12;35.77;;;18.97;;
15228;SDS011;7717;47.792;12.076;2022-12-16T00:50:37;39.07;;;20.37;;
15228;SDS011;7717;47.792;12.076;2022-12-16T00:53:03;38.73;;;20.13;;
15228;SDS011;7717;47.792;12.076;2022-12-16T00:55:29;36.27;;;18.73;;
15228;SDS011;7717;47.792;12.076;2022-12-16T00:57:55;35.07;;;17.63;;
15228;SDS011;7717;47.792;12.076;2022-12-16T01:00:20;33.60;;;18.30;;
15228;SDS011;7717;47.792;12.076;2022-12-16T01:02:47;35.53;;;18.60;;
15228;SDS011;7717;47.792;12.076;2022-12-16T01:05:15;34.77;;;19.57;;
15228;SDS011;7717;47.792;12.076;2022-12-16T01:07:43;33.60;;;18.10;;
15228;SDS011;7717;47.792;12.076;2022-12-16T01:10:09;31.13;;;17.50;;
15228;SDS011;7717;47.792;12.076;2022-12-16T01:12:35;34.07;;;18.13;;
15228;SDS011;7717;47.792;12.076;2022-12-16T01:15:02;29.90;;;16.67;;
15228;SDS011;7717;47.792;12.076;2022-12-16T01:17:29;28.93;;;15.43;;
15228;SDS011;7717;47.792;12.076;2022-12-16T01:19:54;26.77;;;16.33;;
15228;SDS011;7717;47.792;12.076;2022-12-16T01:22:20;26.47;;;16.17;;
15228;SDS011;7717;47.792;12.076;2022-12-16T01:24:46;33.70;;;16.87;;
15228;SDS011;7717;47.792;12.076;2022-12-16T01:27:12;35.00;;;16.87;;
15228;SDS011;7717;47.792;12.076;2022-12-16T01:29:38;27.37;;;14.83;;
15228;SDS011;7717;47.792;12.076;2022-12-16T01:32:03;36.10;;;17.80;;
15228;SDS011;7717;47.792;12.076;2022-12-16T01:34:30;26.50;;;15.27;;
15228;SDS011;7717;47.792;12.076;2022-12-16T01:36:56;34.33;;;17.33;;
15228;SDS011;7717;47.792;12.076;2022-12-16T01:39:21;26.53;;;14.37;;
15228;SDS011;7717;47.792;12.076;2022-12-16T01:41:47;27.30;;;15.83;;
15228;SDS011;7717;47.792;12.076;2022-12-16T01:44:17;30.37;;;15.63;;
15228;SDS011;7717;47.792;12.076;2022-12-16T01:46:44;27.30;;;16.87;;
15228;SDS011;7717;47.792;12.076;2022-12-16T01:52:02;30.70;;;14.90;;
15228;SDS011;7717;47.792;12.076;2022-12-16T01:54:33;28.17;;;15.33;;
15228;SDS011;7717;47.792;12.076;2022-12-16T01:57:04;24.87;;;14.87;;
15228;SDS011;7717;47.792;12.076;2022-12-16T01:59:32;34.17;;;16.80;;
15228;SDS011;7717;47.792;12.076;2022-12-16T02:02:01;27.10;;;15.67;;
15228;SDS011;7717;47.792;12.076;2022-12-16T02:04:27;29.67;;;14.70;;
15228;SDS011;7717;47.792;12.076;2022-12-16T02:06:53;28.10;;;15.87;;
15228;SDS011;7717;47.792;12.076;2022-12-16T02:09:19;23.30;;;14.43;;
15228;SDS011;7717;47.792;12.076;2022-12-16T02:14:41;30.60;;;15.87;;
15228;SDS011;7717;47.792;12.076;2022-12-16T02:17:13;27.20;;;15.30;;
15228;SDS011;7717;47.792;12.076;2022-12-16T02:31:22;28.83;;;15.97;;
15228;SDS011;7717;47.792;12.076;2022-12-16T02:34:08;22.90;;;13.87;;
15228;SDS011;7717;47.792;12.076;2022-12-16T02:36:55;21.50;;;13.47;;
15228;SDS011;7717;47.792;12.076;2022-12-16T02:42:15;22.13;;;13.37;;
15228;SDS011;7717;47.792;12.076;2022-12-16T02:47:46;28.97;;;15.73;;
15228;SDS011;7717;47.792;12.076;2022-12-16T02:50:19;26.93;;;15.13;;
15228;SDS011;7717;47.792;12.076;2022-12-16T02:52:47;28.43;;;15.40;;
15228;SDS011;7717;47.792;12.076;2022-12-16T02:55:13;25.93;;;14.20;;
15228;SDS011;7717;47.792;12.076;2022-12-16T02:57:49;21.07;;;13.73;;
15228;SDS011;7717;47.792;12.076;2022-12-16T03:00:25;28.20;;;13.80;;
15228;SDS011;7717;47.792;12.076;2022-12-16T03:05:47;25.50;;;13.53;;
15228;SDS011;7717;47.792;12.076;2022-12-16T03:08:16;28.90;;;14.90;;
15228;SDS011;7717;47.792;12.076;2022-12-16T03:10:49;26.90;;;14.53;;
15228;SDS011;7717;47.792;12.076;2022-12-16T03:13:19;26.47;;;13.97;;
15228;SDS011;7717;47.792;12.076;2022-12-16T03:15:46;22.87;;;13.87;;
15228;SDS011;7717;47.792;12.076;2022-12-16T03:18:16;25.87;;;14.20;;
15228;SDS011;7717;47.792;12.076;2022-12-16T03:20:45;25.60;;;14.23;;
15228;SDS011;7717;47.792;12.076;2022-12-16T03:23:14;22.00;;;13.17;;
15228;SDS011;7717;47.792;12.076;2022-12-16T03:25:44;26.50;;;13.43;;
15228;SDS011;7717;47.792;12.076;2022-12-16T03:33:53;20.60;;;13.33;;
15228;SDS011;7717;47.792;12.076;2022-12-16T03:36:24;25.20;;;13.53;;
15228;SDS011;7717;47.792;12.076;2022-12-16T03:38:51;26.07;;;13.77;;
15228;SDS011;7717;47.792;12.076;2022-12-16T03:41:18;23.60;;;14.27;;
15228;SDS011;7717;47.792;12.076;2022-12-16T03:43:47;24.97;;;14.40;;
15228;SDS011;7717;47.792;12.076;2022-12-16T03:46:13;25.27;;;13.37;;
15228;SDS011;7717;47.792;12.076;2022-12-16T03:48:47;25.17;;;13.50;;
15228;SDS011;7717;47.792;12.076;2022-12-16T03:51:14;23.90;;;13.50;;
15228;SDS011;7717;47.792;12.076;2022-12-16T03:53:40;20.97;;;13.17;;
15228;SDS011;7717;47.792;12.076;2022-12-16T03:56:06;26.27;;;13.60;;
15228;SDS011;7717;47.792;12.076;2022-12-16T03:58:32;22.80;;;12.77;;
15228;SDS011;7717;47.792;12.076;2022-12-16T04:00:59;19.83;;;12.50;;
15228;SDS011;7717;47.792;12.076;2022-12-16T04:03:25;20.10;;;12.20;;
15228;SDS011;7717;47.792;12.076;2022-12-16T04:05:50;22.20;;;12.27;;
15228;SDS011;7717;47.792;12.076;2022-12-16T04:08:16;21.20;;;12.87;;
15228;SDS011;7717;47.792;12.076;2022-12-16T04:10:41;22.00;;;12.23;;
15228;SDS011;7717;47.792;12.076;2022-12-16T04:13:25;20.33;;;12.47;;
15228;SDS011;7717;47.792;12.076;2022-12-16T04:16:13;23.97;;;13.67;;
15228;SDS011;7717;47.792;12.076;2022-12-16T04:18:58;21.43;;;12.57;;
15228;SDS011;7717;47.792;12.076;2022-12-16T04:21:43;23.23;;;13.90;;
15228;SDS011;7717;47.792;12.076;2022-12-16T04:24:26;24.40;;;13.20;;
15228;SDS011;7717;47.792;12.076;2022-12-16T04:26:54;20.57;;;12.30;;
15228;SDS011;7717;47.792;12.076;2022-12-16T04:29:38;23.80;;;13.20;;
15228;SDS011;7717;47.792;12.076;2022-12-16T04:32:23;24.07;;;12.77;;
15228;SDS011;7717;47.792;12.076;2022-12-16T04:34:49;25.03;;;13.77;;
15228;SDS011;7717;47.792;12.076;2022-12-16T04:37:15;22.10;;;12.40;;
15228;SDS011;7717;47.792;12.076;2022-12-16T04:39:59;24.70;;;13.27;;
15228;SDS011;7717;47.792;12.076;2022-12-16T04:42:43;21.83;;;13.40;;
15228;SDS011;7717;47.792;12.076;2022-12-16T04:45:27;23.80;;;12.90;;
15228;SDS011;7717;47.792;12.076;2022-12-16T04:48:11;19.43;;;12.33;;
15228;SDS011;7717;47.792;12.076;2022-12-16T04:50:55;18.67;;;12.47;;
15228;SDS011;7717;47.792;12.076;2022-12-16T04:53:39;24.80;;;12.97;;
15228;SDS011;7717;47.792;12.076;2022-12-16T04:56:23;21.30;;;13.20;;
15228;SDS011;7717;47.792;12.076;2022-12-16T04:59:06;20.17;;;12.67;;
15228;SDS011;7717;47.792;12.076;2022-12-16T05:01:50;19.43;;;12.23;;
15228;SDS011;7717;47.792;12.076;2022-12-16T05:04:34;21.07;;;12.60;;
15228;SDS011;7717;47.792;12.076;2022-12-16T05:07:18;21.47;;;12.40;;
15228;SDS011;7717;47.792;12.076;2022-12-16T05:10:01;25.60;;;13.40;;
15228;SDS011;7717;47.792;12.076;2022-12-16T05:12:46;19.53;;;11.70;;
15228;SDS011;7717;47.792;12.076;2022-12-16T05:15:29;19.17;;;10.83;;
15228;SDS011;7717;47.792;12.076;2022-12-16T05:18:14;18.10;;;11.67;;
15228;SDS011;7717;47.792;12.076;2022-12-16T05:20:59;19.70;;;12.13;;
15228;SDS011;7717;47.792;12.076;2022-12-16T05:23:45;19.53;;;10.67;;
15228;SDS011;7717;47.792;12.076;2022-12-16T05:26:29;19.03;;;11.37;;
15228;SDS011;7717;47.792;12.076;2022-12-16T05:29:13;18.20;;;11.47;;
15228;SDS011;7717;47.792;12.076;2022-12-16T05:31:58;20.03;;;11.83;;
15228;SDS011;7717;47.792;12.076;2022-12-16T05:34:42;20.03;;;12.53;;
15228;SDS011;7717;47.792;12.076;2022-12-16T05:37:25;20.60;;;12.47;;
15228;SDS011;7717;47.792;12.076;2022-12-16T05:40:09;20.80;;;12.57;;
15228;SDS011;7717;47.792;12.076;2022-12-16T05:42:54;21.97;;;12.40;;
15228;SDS011;7717;47.792;12.076;2022-12-16T05:45:41;19.23;;;11.80;;
15228;SDS011;7717;47.792;12.076;2022-12-16T05:48:25;21.40;;;12.40;;
15228;SDS011;7717;47.792;12.076;2022-12-16T05:51:09;19.60;;;12.20;;
15228;SDS011;7717;47.792;12.076;2022-12-16T05:53:53;25.33;;;15.20;;
15228;SDS011;7717;47.792;12.076;2022-12-16T05:56:37;25.83;;;13.93;;
15228;SDS011;7717;47.792;12.076;2022-12-16T05:59:21;22.27;;;12.73;;
15228;SDS011;7717;47.792;12.076;2022-12-16T06:02:05;25.47;;;14.20;;
15228;SDS011;7717;47.792;12.076;2022-12-16T06:04:49;21.13;;;12.30;;
15228;SDS011;7717;47.792;12.076;2022-12-16T06:07:33;27.37;;;15.63;;
15228;SDS011;7717;47.792;12.076;2022-12-16T06:10:17;32.10;;;16.53;;
15228;SDS011;7717;47.792;12.076;2022-12-16T06:13:00;22.77;;;14.00;;
15228;SDS011;7717;47.792;12.076;2022-12-16T06:15:44;20.83;;;13.10;;
15228;SDS011;7717;47.792;12.076;2022-12-16T06:18:28;20.70;;;12.63;;
15228;SDS011;7717;47.792;12.076;2022-12-16T06:21:13;21.23;;;11.43;;
15228;SDS011;7717;47.792;12.076;2022-12-16T06:23:57;21.47;;;12.83;;
15228;SDS011;7717;47.792;12.076;2022-12-16T06:26:41;23.33;;;13.73;;
15228;SDS011;7717;47.792;12.076;2022-12-16T06:29:24;32.13;;;18.83;;
15228;SDS011;7717;47.792;12.076;2022-12-16T06:32:08;28.80;;;16.97;;
15228;SDS011;7717;47.792;12.076;2022-12-16T06:34:52;24.00;;;14.40;;
15228;SDS011;7717;47.792;12.076;2022-12-16T06:37:36;19.63;;;11.37;;
15228;SDS011;7717;47.792;12.076;2022-12-16T06:40:19;18.57;;;11.10;;
15228;SDS011;7717;47.792;12.076;2022-12-16T06:43:04;24.67;;;12.77;;
15228;SDS011;7717;47.792;12.076;2022-12-16T06:45:48;27.33;;;16.13;;
15228;SDS011;7717;47.792;12.076;2022-12-16T06:48:31;26.63;;;15.43;;
15228;SDS011;7717;47.792;12.076;2022-12-16T06:51:15;46.03;;;21.53;;
15228;SDS011;7717;47.792;12.076;2022-12-16T06:53:59;27.10;;;14.80;;
15228;SDS011;7717;47.792;12.076;2022-12-16T06:56:43;20.30;;;12.70;;
15228;SDS011;7717;47.792;12.076;2022-12-16T06:59:27;15.90;;;10.60;;
15228;SDS011;7717;47.792;12.076;2022-12-16T07:02:11;17.13;;;10.67;;
15228;SDS011;7717;47.792;12.076;2022-12-16T07:04:55;17.47;;;9.87;;
15228;SDS011;7717;47.792;12.076;2022-12-16T07:07:45;17.00;;;11.00;;
15228;SDS011;7717;47.792;12.076;2022-12-16T07:10:31;20.10;;;11.50;;
15228;SDS011;7717;47.792;12.076;2022-12-16T07:13:16;15.63;;;9.53;;
15228;SDS011;7717;47.792;12.076;2022-12-16T07:16:00;16.07;;;9.73;;
15228;SDS011;7717;47.792;12.076;2022-12-16T07:18:43;16.30;;;9.47;;
15228;SDS011;7717;47.792;12.076;2022-12-16T07:21:28;15.03;;;10.13;;
15228;SDS011;7717;47.792;12.076;2022-12-16T07:24:11;17.83;;;10.33;;
15228;SDS011;7717;47.792;12.076;2022-12-16T07:26:55;15.77;;;10.73;;
15228;SDS011;7717;47.792;12.076;2022-12-16T07:29:39;17.63;;;11.13;;
15228;SDS011;7717;47.792;12.076;2022-12-16T07:32:23;16.20;;;10.77;;
15228;SDS011;7717;47.792;12.076;2022-12-16T07:35:06;18.53;;;11.50;;
15228;SDS011;7717;47.792;12.076;2022-12-16T07:37:50;19.50;;;12.17;;
15228;SDS011;7717;47.792;12.076;2022-12-16T07:40:34;21.00;;;12.70;;
15228;SDS011;7717;47.792;12.076;2022-12-16T07:43:18;19.03;;;12.50;;
15228;SDS011;7717;47.792;12.076;2022-12-16T07:46:02;17.30;;;12.00;;
15228;SDS011;7717;47.792;12.076;2022-12-16T07:48:46;18.60;;;12.30;;
15228;SDS011;7717;47.792;12.076;2022-12-16T07:51:30;17.60;;;11.47;;
15228;SDS011;7717;47.792;12.076;2022-12-16T07:54:13;20.17;;;12.37;;
15228;SDS011;7717;47.792;12.076;2022-12-16T07:56:57;21.33;;;12.10;;
15228;SDS011;7717;47.792;12.076;2022-12-16T07:59:41;21.77;;;12.77;;
15228;SDS011;7717;47.792;12.076;2022-12-16T08:02:24;20.10;;;12.67;;
15228;SDS011;7717;47.792;12.076;2022-12-16T08:05:08;18.33;;;13.30;;
15228;SDS011;7717;47.792;12.076;2022-12-16T08:07:52;16.77;;;12.37;;
15228;SDS011;7717;47.792;12.076;2022-12-16T08:10:36;17.50;;;12.10;;
15228;SDS011;7717;47.792;12.076;2022-12-16T08:13:19;17.63;;;12.00;;
15228;SDS011;7717;47.792;12.076;2022-12-16T08:16:03;20.87;;;14.70;;
15228;SDS011;7717;47.792;12.076;2022-12-16T08:18:47;17.37;;;12.20;;
15228;SDS011;7717;47.792;12.076;2022-12-16T08:21:31;16.27;;;11.43;;
15228;SDS011;7717;47.792;12.076;2022-12-16T08:24:15;17.80;;;12.47;;
15228;SDS011;7717;47.792;12.076;2022-12-16T08:26:59;18.67;;;11.97;;
15228;SDS011;7717;47.792;12.076;2022-12-16T08:29:42;20.47;;;14.07;;
15228;SDS011;7717;47.792;12.076;2022-12-16T08:32:26;19.13;;;12.37;;
15228;SDS011;7717;47.792;12.076;2022-12-16T08:35:10;22.70;;;13.13;;
15228;SDS011;7717;47.792;12.076;2022-12-16T08:37:54;18.10;;;11.97;;
15228;SDS011;7717;47.792;12.076;2022-12-16T08:40:39;21.03;;;13.43;;
15228;SDS011;7717;47.792;12.076;2022-12-16T08:43:25;18.67;;;12.23;;
15228;SDS011;7717;47.792;12.076;2022-12-16T08:46:09;16.60;;;11.57;;
15228;SDS011;7717;47.792;12.076;2022-12-16T08:48:53;20.03;;;12.50;;
15228;SDS011;7717;47.792;12.076;2022-12-16T08:51:36;18.50;;;13.60;;
15228;SDS011;7717;47.792;12.076;2022-12-16T08:54:20;21.67;;;15.17;;
15228;SDS011;7717;47.792;12.076;2022-12-16T08:57:04;21.87;;;15.30;;
15228;SDS011;7717;47.792;12.076;2022-12-16T08:59:47;24.33;;;15.53;;
15228;SDS011;7717;47.792;12.076;2022-12-16T09:02:31;23.00;;;14.07;;
15228;SDS011;7717;47.792;12.076;2022-12-16T09:05:15;21.23;;;13.47;;
15228;SDS011;7717;47.792;12.076;2022-12-16T09:07:59;19.57;;;13.07;;
15228;SDS011;7717;47.792;12.076;2022-12-16T09:10:44;18.97;;;13.90;;
15228;SDS011;7717;47.792;12.076;2022-12-16T09:13:28;20.67;;;14.23;;
15228;SDS011;7717;47.792;12.076;2022-12-16T09:16:12;19.33;;;14.20;;
15228;SDS011;7717;47.792;12.076;2022-12-16T09:18:56;19.53;;;13.77;;
15228;SDS011;7717;47.792;12.076;2022-12-16T09:21:40;21.03;;;13.83;;
15228;SDS011;7717;47.792;12.076;2022-12-16T09:24:24;23.93;;;14.20;;
15228;SDS011;7717;47.792;12.076;2022-12-16T09:27:08;22.67;;;15.60;;
15228;SDS011;7717;47.792;12.076;2022-12-16T09:29:51;25.40;;;16.40;;
15228;SDS011;7717;47.792;12.076;2022-12-16T09:32:39;23.23;;;15.23;;
15228;SDS011;7717;47.792;12.076;2022-12-16T09:35:24;29.83;;;18.57;;
15228;SDS011;7717;47.792;12.076;2022-12-16T09:38:08;24.20;;;15.60;;
15228;SDS011;7717;47.792;12.076;2022-12-16T09:40:52;24.57;;;15.00;;
15228;SDS011;7717;47.792;12.076;2022-12-16T09:43:53;24.27;;;15.20;;
15228;SDS011;7717;47.792;12.076;2022-12-16T09:52:33;25.93;;;14.73;;
15228;SDS011;7717;47.792;12.076;2022-12-16T09:55:30;23.90;;;16.53;;
15228;SDS011;7717;47.792;12.076;2022-12-16T09:58:20;24.60;;;14.93;;
15228;SDS011;7717;47.792;12.076;2022-12-16T10:01:08;21.73;;;14.13;;
15228;SDS011;7717;47.792;12.076;2022-12-16T10:03:54;24.77;;;14.83;;
15228;SDS011;7717;47.792;12.076;2022-12-16T10:06:43;24.13;;;14.80;;
15228;SDS011;7717;47.792;12.076;2022-12-16T10:12:31;25.03;;;15.40;;
15228;SDS011;7717;47.792;12.076;2022-12-16T10:21:59;73.13;;;36.23;;
15228;SDS011;7717;47.792;12.076;2022-12-16T10:27:46;60.30;;;33.90;;
15228;SDS011;7717;47.792;12.076;2022-12-16T10:30:33;67.00;;;34.47;;
15228;SDS011;7717;47.792;12.076;2022-12-16T10:33:21;61.37;;;32.47;;
15228;SDS011;7717;47.792;12.076;2022-12-16T10:36:12;29.47;;;19.30;;
15228;SDS011;7717;47.792;12.076;2022-12-16T10:39:45;30.60;;;18.73;;
15228;SDS011;7717;47.792;12.076;2022-12-16T10:42:16;25.73;;;17.03;;
15228;SDS011;7717;47.792;12.076;2022-12-16T10:45:12;28.67;;;17.77;;
15228;SDS011;7717;47.792;12.076;2022-12-16T10:48:03;23.73;;;17.30;;
15228;SDS011;7717;47.792;12.076;2022-12-16T10:50:48;23.73;;;15.37;;
15228;SDS011;7717;47.792;12.076;2022-12-16T10:53:32;20.70;;;15.57;;
15228;SDS011;7717;47.792;12.076;2022-12-16T10:59:07;26.90;;;17.67;;
15228;SDS011;7717;47.792;12.076;2022-12-16T11:02:02;25.10;;;16.97;;
15228;SDS011;7717;47.792;12.076;2022-12-16T11:04:52;21.43;;;15.27;;
15228;SDS011;7717;47.792;12.076;2022-12-16T11:07:49;25.53;;;16.77;;
15228;SDS011;7717;47.792;12.076;2022-12-16T11:16:15;26.00;;;16.87;;
15228;SDS011;7717;47.792;12.076;2022-12-16T11:19:04;24.33;;;17.00;;
15228;SDS011;7717;47.792;12.076;2022-12-16T11:22:06;28.00;;;17.50;;
15228;SDS011;7717;47.792;12.076;2022-12-16T11:25:08;30.10;;;17.00;;
15228;SDS011;7717;47.792;12.076;2022-12-16T11:31:02;26.43;;;16.23;;
15228;SDS011;7717;47.792;12.076;2022-12-16T11:33:49;32.83;;;18.17;;
15228;SDS011;7717;47.792;12.076;2022-12-16T11:36:34;28.43;;;17.73;;
15228;SDS011;7717;47.792;12.076;2022-12-16T11:39:21;29.47;;;18.60;;
15228;SDS011;7717;47.792;12.076;2022-12-16T11:42:08;31.57;;;19.83;;
15228;SDS011;7717;47.792;12.076;2022-12-16T11:44:59;34.53;;;19.87;;
15228;SDS011;7717;47.792;12.076;2022-12-16T11:47:53;31.53;;;20.97;;
15228;SDS011;7717;47.792;12.076;2022-12-16T11:50:47;33.37;;;21.00;;
15228;SDS011;7717;47.792;12.076;2022-12-16T11:53:49;33.47;;;21.10;;
15228;SDS011;7717;47.792;12.076;2022-12-16T11:56:41;32.10;;;20.33;;
15228;SDS011;7717;47.792;12.076;2022-12-16T11:59:35;33.80;;;20.60;;
15228;SDS011;7717;47.792;12.076;2022-12-16T12:02:36;34.07;;;19.80;;
15228;SDS011;7717;47.792;12.076;2022-12-16T12:06:05;33.87;;;20.60;;
15228;SDS011;7717;47.792;12.076;2022-12-16T12:09:07;34.30;;;21.23;;
15228;SDS011;7717;47.792;12.076;2022-12-16T12:11:59;32.47;;;19.43;;
15228;SDS011;7717;47.792;12.076;2022-12-16T12:21:22;31.63;;;21.53;;
15228;SDS011;7717;47.792;12.076;2022-12-16T12:23:58;34.87;;;20.90;;
15228;SDS011;7717;47.792;12.076;2022-12-16T12:27:02;34.50;;;22.17;;
15228;SDS011;7717;47.792;12.076;2022-12-16T12:30:06;35.90;;;21.87;;
15228;SDS011;7717;47.792;12.076;2022-12-16T12:36:19;34.57;;;23.27;;
15228;SDS011;7717;47.792;12.076;2022-12-16T12:51:24;31.97;;;19.97;;
15228;SDS011;7717;47.792;12.076;2022-12-16T12:57:24;32.97;;;19.90;;
15228;SDS011;7717;47.792;12.076;2022-12-16T13:00:21;32.27;;;20.60;;
15228;SDS011;7717;47.792;12.076;2022-12-16T13:06:11;31.40;;;19.77;;
15228;SDS011;7717;47.792;12.076;2022-12-16T13:08:57;39.80;;;22.20;;
15228;SDS011;7717;47.792;12.076;2022-12-16T13:20:47;30.70;;;21.23;;
15228;SDS011;7717;47.792;12.076;2022-12-16T13:23:36;32.43;;;21.07;;
15228;SDS011;7717;47.792;12.076;2022-12-16T13:26:25;32.23;;;19.77;;
15228;SDS011;7717;47.792;12.076;2022-12-16T13:29:26;28.93;;;18.63;;
15228;SDS011;7717;47.792;12.076;2022-12-16T13:32:25;33.53;;;19.77;;
15228;SDS011;7717;47.792;12.076;2022-12-16T13:37:57;29.87;;;19.50;;
15228;SDS011;7717;47.792;12.076;2022-12-16T13:43:46;35.77;;;23.70;;
15228;SDS011;7717;47.792;12.076;2022-12-16T13:49:46;36.43;;;23.43;;
15228;SDS011;7717;47.792;12.076;2022-12-16T13:55:46;34.40;;;21.63;;
15228;SDS011;7717;47.792;12.076;2022-12-16T13:58:42;32.13;;;19.60;;
15228;SDS011;7717;47.792;12.076;2022-12-16T14:01:35;30.97;;;18.67;;
15228;SDS011;7717;47.792;12.076;2022-12-16T14:04:27;26.90;;;18.70;;
15228;SDS011;7717;47.792;12.076;2022-12-16T14:07:33;34.13;;;20.87;;
15228;SDS011;7717;47.792;12.076;2022-12-16T14:10:27;31.00;;;19.77;;
15228;SDS011;7717;47.792;12.076;2022-12-16T14:13:30;32.40;;;20.27;;
15228;SDS011;7717;47.792;12.076;2022-12-16T14:16:29;35.10;;;21.07;;
15228;SDS011;7717;47.792;12.076;2022-12-16T14:25:20;31.97;;;20.57;;
15228;SDS011;7717;47.792;12.076;2022-12-16T14:31:12;35.37;;;21.37;;
15228;SDS011;7717;47.792;12.076;2022-12-16T14:34:00;32.03;;;19.60;;
15228;SDS011;7717;47.792;12.076;2022-12-16T14:36:45;34.03;;;21.00;;
15228;SDS011;7717;47.792;12.076;2022-12-16T14:39:30;31.90;;;19.67;;
15228;SDS011;7717;47.792;12.076;2022-12-16T14:42:23;32.50;;;19.73;;
15228;SDS011;7717;47.792;12.076;2022-12-16T14:48:12;33.03;;;21.67;;
15228;SDS011;7717;47.792;12.076;2022-12-16T14:57:18;25.27;;;16.30;;
15228;SDS011;7717;47.792;12.076;2022-12-16T15:02:48;25.47;;;17.10;;
15228;SDS011;7717;47.792;12.076;2022-12-16T15:05:36;22.03;;;13.70;;
15228;SDS011;7717;47.792;12.076;2022-12-16T15:08:21;23.33;;;15.23;;
15228;SDS011;7717;47.792;12.076;2022-12-16T15:11:07;26.87;;;17.43;;
15228;SDS011;7717;47.792;12.076;2022-12-16T15:13:54;25.80;;;16.63;;
15228;SDS011;7717;47.792;12.076;2022-12-16T15:16:42;24.10;;;16.07;;
15228;SDS011;7717;47.792;12.076;2022-12-16T15:19:36;27.77;;;16.20;;
15228;SDS011;7717;47.792;12.076;2022-12-16T15:22:25;28.13;;;17.50;;
15228;SDS011;7717;47.792;12.076;2022-12-16T15:25:23;27.70;;;16.97;;
15228;SDS011;7717;47.792;12.076;2022-12-16T15:28:25;27.20;;;16.63;;
15228;SDS011;7717;47.792;12.076;2022-12-16T15:31:24;32.33;;;18.93;;
15228;SDS011;7717;47.792;12.076;2022-12-16T15:34:34;38.97;;;18.53;;
15228;SDS011;7717;47.792;12.076;2022-12-16T15:37:27;33.43;;;20.27;;
15228;SDS011;7717;47.792;12.076;2022-12-16T15:40:21;30.50;;;22.07;;
15228;SDS011;7717;47.792;12.076;2022-12-16T15:46:22;29.33;;;17.00;;
15228;SDS011;7717;47.792;12.076;2022-12-16T15:55:26;29.07;;;18.17;;
15228;SDS011;7717;47.792;12.076;2022-12-16T15:58:26;29.00;;;18.10;;
15228;SDS011;7717;47.792;12.076;2022-12-16T16:01:10;24.43;;;16.17;;
15228;SDS011;7717;47.792;12.076;2022-12-16T16:03:56;28.90;;;18.57;;
15228;SDS011;7717;47.792;12.076;2022-12-16T16:06:46;27.77;;;18.53;;
15228;SDS011;7717;47.792;12.076;2022-12-16T16:09:33;26.03;;;16.63;;
15228;SDS011;7717;47.792;12.076;2022-12-16T16:12:19;28.53;;;17.23;;
15228;SDS011;7717;47.792;12.076;2022-12-16T16:15:05;28.33;;;17.90;;
15228;SDS011;7717;47.792;12.076;2022-12-16T16:17:56;37.43;;;23.13;;
15228;SDS011;7717;47.792;12.076;2022-12-16T16:20:42;37.87;;;26.20;;
15228;SDS011;7717;47.792;12.076;2022-12-16T16:23:27;29.73;;;19.40;;
15228;SDS011;7717;47.792;12.076;2022-12-16T16:26:12;30.33;;;18.83;;
15228;SDS011;7717;47.792;12.076;2022-12-16T16:28:58;31.47;;;20.20;;
15228;SDS011;7717;47.792;12.076;2022-12-16T16:31:43;32.00;;;20.30;;
15228;SDS011;7717;47.792;12.076;2022-12-16T16:34:26;31.57;;;18.97;;
15228;SDS011;7717;47.792;12.076;2022-12-16T16:37:12;28.10;;;17.70;;
15228;SDS011;7717;47.792;12.076;2022-12-16T16:39:58;31.97;;;19.00;;
15228;SDS011;7717;47.792;12.076;2022-12-16T16:42:42;30.80;;;19.67;;
15228;SDS011;7717;47.792;12.076;2022-12-16T16:45:26;32.87;;;19.63;;
15228;SDS011;7717;47.792;12.076;2022-12-16T16:48:12;32.07;;;19.20;;
15228;SDS011;7717;47.792;12.076;2022-12-16T16:50:57;34.30;;;19.80;;
15228;SDS011;7717;47.792;12.076;2022-12-16T16:53:42;23.37;;;15.07;;
15228;SDS011;7717;47.792;12.076;2022-12-16T16:56:26;34.37;;;18.27;;
15228;SDS011;7717;47.792;12.076;2022-12-16T16:59:13;30.70;;;18.10;;
15228;SDS011;7717;47.792;12.076;2022-12-16T17:01:57;33.50;;;18.43;;
15228;SDS011;7717;47.792;12.076;2022-12-16T17:04:42;44.40;;;23.63;;
15228;SDS011;7717;47.792;12.076;2022-12-16T17:07:25;33.27;;;20.00;;
15228;SDS011;7717;47.792;12.076;2022-12-16T17:10:09;20.73;;;9.37;;
15228;SDS011;7717;47.792;12.076;2022-12-16T17:12:53;40.10;;;25.70;;
15228;SDS011;7717;47.792;12.076;2022-12-16T17:15:54;31.13;;;17.80;;
15228;SDS011;7717;47.792;12.076;2022-12-16T17:18:38;21.47;;;13.37;;
15228;SDS011;7717;47.792;12.076;2022-12-16T17:21:21;14.43;;;9.10;;
15228;SDS011;7717;47.792;12.076;2022-12-16T17:24:05;29.47;;;17.47;;
15228;SDS011;7717;47.792;12.076;2022-12-16T17:26:50;27.10;;;15.10;;
15228;SDS011;7717;47.792;12.076;2022-12-16T17:29:34;27.47;;;17.47;;
15228;SDS011;7717;47.792;12.076;2022-12-16T17:32:18;15.50;;;9.07;;
15228;SDS011;7717;47.792;12.076;2022-12-16T17:35:02;24.17;;;13.90;;
15228;SDS011;7717;47.792;12.076;2022-12-16T17:37:46;21.67;;;14.70;;
15228;SDS011;7717;47.792;12.076;2022-12-16T17:40:29;24.77;;;14.87;;
15228;SDS011;7717;47.792;12.076;2022-12-16T17:43:13;30.77;;;20.07;;
15228;SDS011;7717;47.792;12.076;2022-12-16T17:48:51;28.77;;;18.13;;
15228;SDS011;7717;47.792;12.076;2022-12-16T17:51:41;29.53;;;18.67;;
15228;SDS011;7717;47.792;12.076;2022-12-16T17:54:25;28.13;;;17.37;;
15228;SDS011;7717;47.792;12.076;2022-12-16T17:57:09;24.67;;;16.40;;
15228;SDS011;7717;47.792;12.076;2022-12-16T17:59:54;32.10;;;18.60;;
15228;SDS011;7717;47.792;12.076;2022-12-16T18:02:37;26.67;;;17.07;;
15228;SDS011;7717;47.792;12.076;2022-12-16T18:05:21;30.33;;;17.97;;
15228;SDS011;7717;47.792;12.076;2022-12-16T18:08:05;29.60;;;18.13;;
15228;SDS011;7717;47.792;12.076;2022-12-16T18:10:53;27.70;;;17.10;;
15228;SDS011;7717;47.792;12.076;2022-12-16T18:13:37;27.13;;;16.57;;